createdAt,value
2018-10-21T00:02:27.544Z,9.40
2018-10-21T00:04:55.074Z,9.30
2018-10-21T00:07:22.771Z,9.30
2018-10-21T00:09:50.425Z,9.30
2018-10-21T00:12:18.062Z,9.20
2018-10-21T00:14:45.695Z,9.30
2018-10-21T00:17:13.343Z,9.20
2018-10-21T00:19:40.959Z,9.20
2018-10-21T00:22:08.584Z,9.20
2018-10-21T00:24:36.202Z,9.20
2018-10-21T00:27:04.697Z,9.20
2018-10-21T00:29:32.309Z,9.20
2018-10-21T00:31:59.946Z,9.20
2018-10-21T00:36:55.191Z,9.20
2018-10-21T00:39:22.818Z,9.20
2018-10-21T00:41:50.460Z,9.20
2018-10-21T00:44:18.115Z,9.30
2018-10-21T00:46:45.746Z,9.30
2018-10-21T00:49:13.390Z,9.30
2018-10-21T00:54:14.543Z,9.40
2018-10-21T00:56:42.994Z,9.40
2018-10-21T00:59:10.874Z,9.40
2018-10-21T01:01:38.548Z,9.40
2018-10-21T01:04:06.273Z,9.40
2018-10-21T01:06:33.922Z,9.30
2018-10-21T01:09:02.016Z,9.30
2018-10-21T01:11:29.583Z,9.20
2018-10-21T01:13:57.243Z,9.20
2018-10-21T01:16:24.966Z,9.20
2018-10-21T01:18:52.666Z,9.20
2018-10-21T01:21:20.303Z,9.20
2018-10-21T01:23:47.922Z,9.10
2018-10-21T01:26:15.562Z,9.10
2018-10-21T01:28:43.175Z,9.10
2018-10-21T01:31:10.865Z,9.10
2018-10-21T01:33:38.512Z,9.10
2018-10-21T01:36:06.253Z,9.10
2018-10-21T01:41:01.335Z,9.00
2018-10-21T01:43:30.137Z,9.00
2018-10-21T01:45:58.098Z,9.00
2018-10-21T01:48:26.814Z,9.00
2018-10-21T01:50:54.451Z,9.10
2018-10-21T01:53:22.442Z,9.10
2018-10-21T01:55:50.163Z,9.00
2018-10-21T02:00:45.493Z,8.90
2018-10-21T02:03:13.221Z,8.80
2018-10-21T02:05:41.742Z,8.70
2018-10-21T02:08:09.402Z,8.80
2018-10-21T02:10:37.071Z,8.70
2018-10-21T02:13:04.814Z,8.70
2018-10-21T02:15:32.446Z,8.70
2018-10-21T02:20:27.851Z,8.60
2018-10-21T02:22:55.491Z,8.50
2018-10-21T02:25:23.123Z,8.50
2018-10-21T02:27:51.383Z,8.40
2018-10-21T02:30:26.940Z,8.30
2018-10-21T02:32:55.033Z,8.30
2018-10-21T02:35:22.940Z,8.30
2018-10-21T02:41:29.077Z,8.20
2018-10-21T02:43:56.751Z,8.20
2018-10-21T02:46:24.591Z,8.20
2018-10-21T02:48:53.283Z,8.20
2018-10-21T02:51:20.951Z,8.10
2018-10-21T02:56:16.162Z,8.00
2018-10-21T02:58:43.773Z,8.00
2018-10-21T03:01:11.418Z,7.90
2018-10-21T03:06:07.062Z,8.00
2018-10-21T03:11:02.661Z,7.90
2018-10-21T03:13:30.707Z,7.80
2018-10-21T03:15:58.350Z,7.80
2018-10-21T03:18:25.999Z,7.80
2018-10-21T03:23:21.388Z,7.90
2018-10-21T03:25:49.017Z,7.80
2018-10-21T03:28:16.723Z,7.80
2018-10-21T03:33:12.072Z,7.70
2018-10-21T03:35:39.570Z,7.70
2018-10-21T03:38:07.183Z,7.60
2018-10-21T03:43:02.371Z,7.60
2018-10-21T03:45:30.031Z,7.60
2018-10-21T03:47:57.671Z,7.60
2018-10-21T03:50:26.330Z,7.50
2018-10-21T03:52:54.023Z,7.50
2018-10-21T03:55:21.883Z,7.50
2018-10-21T04:00:17.058Z,7.40
2018-10-21T04:02:44.794Z,7.30
2018-10-21T04:05:12.550Z,7.30
2018-10-21T04:10:08.111Z,7.20
2018-10-21T04:12:35.733Z,7.30
2018-10-21T04:22:26.043Z,7.20
2018-10-21T04:24:53.674Z,7.30
2018-10-21T04:27:21.343Z,7.30
2018-10-21T04:29:48.962Z,7.20
2018-10-21T04:34:44.171Z,7.20
2018-10-21T04:39:28.036Z,7.30
2018-10-21T04:41:55.699Z,7.20
2018-10-21T04:44:23.326Z,7.10
2018-10-21T04:49:18.591Z,7.10
2018-10-21T04:51:46.215Z,7.10
2018-10-21T04:54:13.854Z,7.10
2018-10-21T04:56:41.489Z,7.10
2018-10-21T05:01:36.673Z,7.20
2018-10-21T05:04:04.414Z,7.20
2018-10-21T05:06:32.002Z,7.10
2018-10-21T05:08:59.622Z,7.10
2018-10-21T05:11:27.226Z,7.00
2018-10-21T05:13:54.837Z,7.00
2018-10-21T05:16:22.484Z,7.00
2018-10-21T05:18:50.146Z,7.00
2018-10-21T05:21:17.787Z,7.00
2018-10-21T05:23:45.420Z,7.10
2018-10-21T05:26:13.022Z,7.10
2018-10-21T05:31:08.179Z,7.20
2018-10-21T05:33:35.814Z,7.30
2018-10-21T05:40:58.514Z,7.50
2018-10-21T05:43:26.150Z,7.50
2018-10-21T05:45:53.812Z,7.50
2018-10-21T05:48:21.430Z,7.50
2018-10-21T05:50:49.083Z,7.50
2018-10-21T05:53:16.694Z,7.50
2018-10-21T05:55:44.346Z,7.50
2018-10-21T05:58:11.952Z,7.50
2018-10-21T06:00:39.598Z,7.50
2018-10-21T06:03:07.229Z,7.50
2018-10-21T06:05:40.314Z,7.60
2018-10-21T06:08:08.115Z,7.60
2018-10-21T06:10:35.791Z,7.60
2018-10-21T06:13:03.483Z,7.70
2018-10-21T06:15:31.110Z,7.80
2018-10-21T06:17:58.814Z,7.90
2018-10-21T06:20:28.982Z,7.90
2018-10-21T06:22:56.616Z,7.90
2018-10-21T06:25:24.251Z,7.90
2018-10-21T06:27:51.907Z,7.80
2018-10-21T06:30:19.539Z,7.80
2018-10-21T06:32:47.180Z,7.80
2018-10-21T06:38:00.851Z,7.80
2018-10-21T06:42:56.032Z,8.10
2018-10-21T06:45:23.730Z,8.10
2018-10-21T06:47:51.275Z,8.10
2018-10-21T06:50:20.010Z,8.20
2018-10-21T06:52:47.970Z,8.30
2018-10-21T06:55:15.563Z,8.40
2018-10-21T06:57:44.058Z,8.30
2018-10-21T07:00:11.649Z,8.20
2018-10-21T07:02:39.254Z,8.30
2018-10-21T07:05:18.583Z,8.30
2018-10-21T07:10:13.777Z,8.40
2018-10-21T07:12:41.608Z,8.40
2018-10-21T07:15:09.214Z,8.50
2018-10-21T07:17:36.809Z,8.70
2018-10-21T07:20:04.785Z,8.70
2018-10-21T07:22:32.424Z,8.90
2018-10-21T07:25:00.039Z,9.10
2018-10-21T07:27:27.634Z,9.40
2018-10-21T07:29:55.267Z,9.50
2018-10-21T07:32:22.867Z,9.60
2018-10-21T07:34:50.462Z,9.90
2018-10-21T07:37:18.042Z,10.10
2018-10-21T07:39:45.646Z,10.10
2018-10-21T07:42:13.228Z,10.30
2018-10-21T07:44:40.826Z,10.30
2018-10-21T07:47:08.466Z,10.40
2018-10-21T07:49:36.115Z,10.50
2018-10-21T07:52:03.798Z,10.50
2018-10-21T07:54:31.403Z,10.60
2018-10-21T07:56:59.007Z,10.60
2018-10-21T07:59:26.612Z,10.80
2018-10-21T08:01:54.235Z,11.00
2018-10-21T08:04:21.830Z,11.80
2018-10-21T08:07:00.783Z,11.80
2018-10-21T08:09:28.370Z,11.90
2018-10-21T08:11:55.981Z,12.00
2018-10-21T08:14:23.586Z,12.00
2018-10-21T08:16:51.198Z,12.00
2018-10-21T08:19:18.785Z,13.00
2018-10-21T08:21:46.391Z,11.90
2018-10-21T08:24:14.006Z,12.10
2018-10-21T08:26:41.655Z,12.10
2018-10-21T08:29:09.250Z,12.20
2018-10-21T08:31:36.874Z,12.10
2018-10-21T08:34:04.669Z,12.20
2018-10-21T08:36:32.295Z,12.50
2018-10-21T08:38:59.912Z,12.90
2018-10-21T08:41:27.535Z,12.90
2018-10-21T08:43:55.145Z,12.70
2018-10-21T08:46:22.920Z,12.60
2018-10-21T08:48:50.537Z,12.80
2018-10-21T08:51:18.199Z,13.20
2018-10-21T08:53:45.922Z,13.70
2018-10-21T08:56:13.514Z,13.60
2018-10-21T08:58:41.159Z,13.60
2018-10-21T09:01:08.802Z,13.50
2018-10-21T09:03:36.778Z,13.60
2018-10-21T09:06:04.478Z,13.70
2018-10-21T09:08:32.103Z,13.80
2018-10-21T09:10:59.777Z,13.80
2018-10-21T09:13:27.395Z,13.70
2018-10-21T09:15:55.023Z,13.60
2018-10-21T09:18:22.635Z,13.30
2018-10-21T09:20:50.275Z,13.30
2018-10-21T09:23:17.889Z,13.40
2018-10-21T09:25:45.503Z,13.10
2018-10-21T09:28:13.155Z,13.30
2018-10-21T09:30:40.747Z,13.70
2018-10-21T09:33:08.411Z,13.80
2018-10-21T09:35:36.010Z,13.70
2018-10-21T09:38:03.821Z,13.80
2018-10-21T09:40:31.555Z,13.20
2018-10-21T09:42:59.269Z,13.50
2018-10-21T09:45:26.926Z,14.00
2018-10-21T09:47:55.366Z,14.20
2018-10-21T09:50:23.031Z,13.90
2018-10-21T09:52:50.682Z,13.50
2018-10-21T09:55:20.171Z,13.80
2018-10-21T09:57:48.409Z,14.00
2018-10-21T10:00:21.615Z,13.80
2018-10-21T10:03:04.019Z,13.50
2018-10-21T10:05:31.730Z,13.40
2018-10-21T10:07:59.361Z,13.70
2018-10-21T10:10:26.963Z,13.70
2018-10-21T10:12:54.575Z,13.60
2018-10-21T10:15:22.311Z,13.70
2018-10-21T10:17:50.033Z,14.00
2018-10-21T10:20:17.607Z,14.30
2018-10-21T10:22:45.262Z,14.60
2018-10-21T10:25:12.906Z,14.70
2018-10-21T10:27:40.818Z,15.00
2018-10-21T10:30:09.787Z,14.80
2018-10-21T10:32:37.618Z,14.70
2018-10-21T10:35:05.832Z,14.70
2018-10-21T10:37:33.449Z,14.70
2018-10-21T10:40:01.083Z,14.70
2018-10-21T10:42:28.719Z,14.90
2018-10-21T10:44:56.333Z,14.60
2018-10-21T10:47:23.906Z,14.40
2018-10-21T10:49:51.557Z,14.30
2018-10-21T10:52:19.178Z,14.00
2018-10-21T10:54:46.969Z,14.00
2018-10-21T10:57:14.414Z,14.20
2018-10-21T10:59:42.051Z,14.20
2018-10-21T11:02:09.710Z,14.40
2018-10-21T11:04:37.366Z,14.40
2018-10-21T11:07:05.497Z,14.30
2018-10-21T11:09:33.124Z,14.20
2018-10-21T11:12:00.778Z,14.20
2018-10-21T11:14:28.400Z,14.20
2018-10-21T11:16:56.004Z,14.10
2018-10-21T11:19:24.682Z,14.10
2018-10-21T11:21:52.389Z,14.00
2018-10-21T11:24:19.962Z,13.90
2018-10-21T11:26:47.908Z,14.00
2018-10-21T11:29:15.414Z,14.10
2018-10-21T11:31:43.010Z,14.20
2018-10-21T11:34:10.625Z,14.10
2018-10-21T11:36:38.259Z,14.10
2018-10-21T11:39:07.182Z,14.80
2018-10-21T11:41:34.815Z,14.10
2018-10-21T11:44:02.822Z,14.00
2018-10-21T11:46:30.476Z,14.10
2018-10-21T11:48:58.104Z,14.20
2018-10-21T11:51:25.694Z,14.30
2018-10-21T11:53:53.302Z,14.40
2018-10-21T11:56:20.969Z,14.40
2018-10-21T11:58:48.552Z,14.40
2018-10-21T12:01:16.227Z,14.40
2018-10-21T12:03:43.819Z,14.50
2018-10-21T12:06:11.442Z,14.60
2018-10-21T12:08:39.038Z,14.50
2018-10-21T12:11:06.634Z,14.50
2018-10-21T12:13:34.235Z,14.60
2018-10-21T12:16:01.867Z,14.60
2018-10-21T12:18:29.512Z,14.70
2018-10-21T12:20:57.154Z,14.70
2018-10-21T12:23:24.790Z,14.70
2018-10-21T12:25:52.334Z,14.70
2018-10-21T12:28:20.107Z,14.70
2018-10-21T12:30:47.553Z,14.80
2018-10-21T12:33:15.251Z,14.90
2018-10-21T12:35:42.831Z,14.70
2018-10-21T12:38:10.456Z,14.80
2018-10-21T12:40:38.058Z,14.90
2018-10-21T12:43:05.689Z,14.90
2018-10-21T12:45:33.429Z,15.00
2018-10-21T12:48:00.994Z,15.00
2018-10-21T12:50:28.623Z,14.90
2018-10-21T12:52:56.257Z,14.90
2018-10-21T12:55:23.856Z,14.90
2018-10-21T12:57:51.498Z,15.00
2018-10-21T13:00:19.114Z,15.00
2018-10-21T13:02:46.721Z,15.10
2018-10-21T13:05:14.351Z,15.00
2018-10-21T13:07:41.941Z,15.00
2018-10-21T13:12:37.229Z,11.00
2018-10-21T13:15:05.294Z,15.20
2018-10-21T13:17:32.906Z,15.20
2018-10-21T13:20:00.506Z,15.20
2018-10-21T13:22:28.139Z,15.20
2018-10-21T13:24:55.780Z,15.20
2018-10-21T13:27:23.381Z,15.30
2018-10-21T13:29:51.256Z,15.30
2018-10-21T13:32:18.899Z,15.30
2018-10-21T13:34:46.593Z,15.30
2018-10-21T13:37:14.151Z,15.30
2018-10-21T13:39:41.718Z,15.20
2018-10-21T13:42:09.306Z,15.30
2018-10-21T13:44:36.891Z,15.40
2018-10-21T13:47:04.579Z,15.40
2018-10-21T13:49:32.191Z,15.40
2018-10-21T13:51:59.928Z,15.30
2018-10-21T13:56:54.994Z,15.30
2018-10-21T14:01:50.232Z,15.40
2018-10-21T14:04:17.955Z,15.40
2018-10-21T14:06:45.487Z,15.30
2018-10-21T14:09:13.654Z,15.30
2018-10-21T14:11:41.422Z,15.40
2018-10-21T14:14:11.037Z,15.50
2018-10-21T14:16:38.966Z,15.40
2018-10-21T14:21:34.979Z,15.40
2018-10-21T14:24:03.014Z,15.40
2018-10-21T14:26:30.667Z,15.40
2018-10-21T14:28:58.275Z,15.30
2018-10-21T14:33:53.483Z,15.30
2018-10-21T14:36:21.136Z,15.30
2018-10-21T14:41:16.262Z,15.30
2018-10-21T14:43:43.992Z,15.30
2018-10-21T14:46:11.756Z,15.30
2018-10-21T14:48:39.303Z,15.20
2018-10-21T14:51:06.950Z,15.20
2018-10-21T14:56:02.090Z,15.10
2018-10-21T15:00:57.178Z,15.10
2018-10-21T15:05:52.331Z,15.00
2018-10-21T15:08:19.982Z,15.00
2018-10-21T15:10:47.601Z,14.90
2018-10-21T15:13:15.229Z,14.90
2018-10-21T15:15:42.870Z,14.90
2018-10-21T15:18:10.486Z,14.80
2018-10-21T15:20:38.080Z,14.70
2018-10-21T15:23:05.794Z,14.70
2018-10-21T15:25:33.341Z,15.10
2018-10-21T15:28:00.971Z,14.60
2018-10-21T15:30:28.578Z,14.60
2018-10-21T15:32:56.155Z,14.50
2018-10-21T15:35:23.734Z,14.50
2018-10-21T15:37:51.350Z,14.50
2018-10-21T15:40:19.017Z,14.40
2018-10-21T15:42:46.685Z,14.40
2018-10-21T15:45:14.230Z,14.30
2018-10-21T15:47:41.875Z,14.20
2018-10-21T15:50:09.622Z,14.10
2018-10-21T15:52:37.181Z,14.00
2018-10-21T15:55:05.566Z,14.00
2018-10-21T15:57:33.174Z,14.00
2018-10-21T16:00:00.774Z,13.90
2018-10-21T16:02:28.410Z,13.80
2018-10-21T16:04:56.030Z,13.70
2018-10-21T16:07:23.642Z,13.70
2018-10-21T16:09:51.235Z,13.70
2018-10-21T16:12:18.826Z,13.60
2018-10-21T16:14:46.443Z,13.50
2018-10-21T16:17:14.039Z,13.40
2018-10-21T16:19:41.677Z,13.40
2018-10-21T16:22:09.242Z,13.30
2018-10-21T16:24:36.858Z,13.20
2018-10-21T16:27:04.614Z,13.20
2018-10-21T16:29:32.366Z,13.20
2018-10-21T16:32:00.090Z,13.20
2018-10-21T16:34:27.603Z,13.00
2018-10-21T16:36:55.297Z,12.90
2018-10-21T16:39:22.947Z,12.90
2018-10-21T16:41:50.529Z,12.80
2018-10-21T16:44:18.138Z,12.70
2018-10-21T16:46:45.811Z,12.70
2018-10-21T16:49:13.423Z,12.60
2018-10-21T16:51:41.042Z,12.40
2018-10-21T16:54:08.809Z,12.40
2018-10-21T16:56:36.334Z,12.40
2018-10-21T16:59:04.007Z,12.30
2018-10-21T17:01:31.787Z,12.30
2018-10-21T17:03:59.431Z,12.30
2018-10-21T17:06:27.047Z,12.20
2018-10-21T17:08:54.728Z,12.10
2018-10-21T17:11:22.681Z,12.00
2018-10-21T17:13:50.247Z,12.00
2018-10-21T17:16:17.929Z,11.90
2018-10-21T17:18:45.494Z,11.90
2018-10-21T17:21:13.082Z,11.70
2018-10-21T17:23:40.677Z,11.60
2018-10-21T17:26:08.282Z,11.60
2018-10-21T17:28:35.907Z,11.60
2018-10-21T17:31:03.592Z,11.50
2018-10-21T17:35:58.735Z,11.50
2018-10-21T17:38:26.376Z,11.50
2018-10-21T17:40:53.982Z,11.50
2018-10-21T17:43:21.616Z,11.50
2018-10-21T17:45:49.231Z,11.40
2018-10-21T17:48:16.831Z,11.30
2018-10-21T17:50:44.423Z,11.30
2018-10-21T17:53:12.083Z,11.30
2018-10-21T17:55:39.712Z,11.30
2018-10-21T17:58:07.383Z,11.20
2018-10-21T18:00:34.990Z,11.10
2018-10-21T18:03:02.610Z,11.00
2018-10-21T18:05:30.287Z,10.90
2018-10-21T18:07:57.895Z,10.80
2018-10-21T18:10:25.494Z,10.80
2018-10-21T18:12:53.098Z,10.70
2018-10-21T18:15:20.730Z,10.70
2018-10-21T18:20:16.123Z,10.50
2018-10-21T18:22:43.723Z,10.50
2018-10-21T18:27:39.321Z,10.40
2018-10-21T18:30:08.218Z,10.40
2018-10-21T18:32:35.834Z,10.30
2018-10-21T18:35:03.587Z,10.30
2018-10-21T18:37:31.350Z,10.30
2018-10-21T18:42:26.519Z,10.30
2018-10-21T18:44:54.118Z,10.30
2018-10-21T18:47:21.716Z,10.20
2018-10-21T18:52:16.975Z,10.20
2018-10-21T18:57:12.132Z,10.20
2018-10-21T18:59:39.759Z,10.10
2018-10-21T19:02:07.565Z,10.10
2018-10-21T19:04:35.195Z,10.10
2018-10-21T19:07:03.285Z,10.10
2018-10-21T19:11:58.830Z,10.00
2018-10-21T19:14:26.555Z,9.90
2018-10-21T19:16:54.150Z,9.90
2018-10-21T19:21:49.663Z,9.80
2018-10-21T19:24:17.276Z,9.80
2018-10-21T19:26:44.887Z,9.80
2018-10-21T19:31:40.019Z,9.70
2018-10-21T19:34:07.640Z,9.70
2018-10-21T19:36:35.342Z,9.60
2018-10-21T19:41:30.940Z,9.60
2018-10-21T19:43:58.538Z,9.50
2018-10-21T19:48:53.722Z,9.50
2018-10-21T19:51:21.394Z,9.40
2018-10-21T19:53:48.994Z,9.40
2018-10-21T20:03:39.647Z,9.30
2018-10-21T20:13:30.344Z,9.10
2018-10-21T20:15:57.957Z,9.10
2018-10-21T20:20:53.195Z,9.00
2018-10-21T20:23:21.048Z,9.00
2018-10-21T20:33:11.437Z,9.00
2018-10-21T20:35:38.954Z,9.00
2018-10-21T20:43:01.998Z,9.00
2018-10-21T20:47:57.119Z,8.90
2018-10-21T20:55:20.328Z,8.80
2018-10-21T20:57:47.979Z,8.80
2018-10-21T21:00:15.709Z,8.80
2018-10-21T21:02:43.401Z,8.80
2018-10-21T21:05:11.028Z,8.80
2018-10-21T21:07:38.648Z,8.70
2018-10-21T21:10:06.861Z,8.70
2018-10-21T21:12:34.562Z,8.60
2018-10-21T21:19:57.304Z,8.60
2018-10-21T21:22:24.966Z,8.50
2018-10-21T21:32:15.212Z,8.40
2018-10-21T21:37:10.326Z,8.20
2018-10-21T21:42:05.532Z,8.10
2018-10-21T21:47:00.637Z,8.00
2018-10-21T21:49:28.262Z,8.00
2018-10-21T21:54:23.383Z,8.00
2018-10-21T21:56:50.970Z,8.00
2018-10-21T21:59:18.566Z,7.90
2018-10-21T22:09:10.139Z,7.80
2018-10-21T22:14:05.722Z,7.70
2018-10-21T22:16:33.378Z,7.70
2018-10-21T22:21:28.494Z,7.70
2018-10-21T22:23:56.155Z,7.60
2018-10-21T22:26:23.730Z,7.60
2018-10-21T22:36:14.037Z,7.70
2018-10-21T22:38:41.616Z,7.70
2018-10-21T22:43:36.740Z,7.70
2018-10-21T22:46:04.559Z,7.60
2018-10-21T22:48:32.134Z,7.60
2018-10-21T22:53:27.438Z,7.60
2018-10-21T22:55:55.078Z,7.60
2018-10-21T22:58:22.678Z,7.60
2018-10-21T23:05:45.318Z,7.60
2018-10-21T23:08:12.941Z,7.60
2018-10-21T23:10:40.539Z,7.60
2018-10-21T23:15:35.630Z,7.60
2018-10-21T23:18:03.294Z,7.50
2018-10-21T23:22:58.420Z,7.40
2018-10-21T23:25:26.022Z,7.50
2018-10-21T23:30:21.233Z,7.40
2018-10-21T23:32:48.766Z,7.40
2018-10-21T23:42:38.963Z,7.40
2018-10-21T23:45:06.664Z,7.40
2018-10-21T23:50:01.804Z,7.40
2018-10-21T23:52:29.406Z,7.40
2018-10-21T23:57:24.530Z,7.40
